| time (UTC) | temp C | wind direction | speed KPH | gust KPH | rain 1hr cm | rain 24hr cm | rain mn cm | humidity % | barometer mb |
| 20260510071829 | 23 | 207 | 1.6 | 3.2 | 0.00 | 0.00 | 0.00 | 97 | 1010.5 |
| 20260510071326 | 23 | 94 | 3.2 | 3.2 | 0.00 | 0.00 | 0.00 | 97 | 1010.4 |
| 20260510070825 | 23 | 194 | 4.8 | 6.4 | 0.00 | 0.00 | 0.00 | 96 | 1010.3 |
| 20260510070321 | 23 | 188 | 3.2 | 6.4 | 0.00 | 0.00 | 0.00 | 96 | 1010.5 |
| 20260510065816 | 23 | 219 | 0.0 | 1.6 | 0.00 | 0.00 | 0.00 | 96 | 1010.6 |
| 20260510065313 | 23 | 185 | 3.2 | 4.8 | 0.00 | 0.00 | 0.00 | 95 | 1010.7 |
| 20260510064810 | 23 | 163 | 4.8 | 4.8 | 0.00 | 0.00 | 0.00 | 95 | 1010.6 |
| 20260510064308 | 23 | 225 | 4.8 | 6.4 | 0.00 | 0.00 | 0.00 | 94 | 1010.6 |
| 20260510063803 | 23 | 226 | 3.2 | 4.8 | 0.00 | 0.00 | 0.00 | 94 | 1010.9 |
| 20260510063259 | 23 | 213 | 4.8 | 4.8 | 0.00 | 0.00 | 0.00 | 94 | 1010.9 |
| 20260510062756 | 23 | 172 | 4.8 | 9.7 | 0.00 | 0.00 | 0.00 | 93 | 1010.9 |
| 20260510062252 | 23 | 171 | 6.4 | 6.4 | 0.00 | 0.00 | 0.00 | 93 | 1010.9 |
| 20260510061747 | 23 | 171 | 3.2 | 4.8 | 0.00 | 0.00 | 0.00 | 93 | 1010.8 |
| 20260510061245 | 23 | 133 | 6.4 | 11.3 | 0.00 | 0.00 | 0.00 | 93 | 1011.0 |
| 20260510060741 | 23 | 212 | 3.2 | 4.8 | 0.00 | 0.00 | 0.00 | 93 | 1011.1 |
| 20260510060238 | 23 | 222 | 0.0 | 0.0 | 0.00 | 0.00 | 0.00 | 92 | 1011.1 |
| 20260510055734 | 23 | 214 | 3.2 | 3.2 | 0.00 | 0.00 | 0.00 | 93 | 1011.0 |
| 20260510055233 | 23 | 135 | 8.0 | 11.3 | 0.00 | 0.00 | 0.00 | 93 | 1011.0 |
| 20260510054732 | 23 | 152 | 6.4 | 9.7 | 0.00 | 0.00 | 0.00 | 93 | 1011.2 |
| 20260510054229 | 23 | 124 | 4.8 | 9.7 | 0.00 | 0.00 | 0.00 | 93 | 1010.8 |
| 20260510053728 | 23 | 217 | 1.6 | 3.2 | 0.00 | 0.00 | 0.00 | 93 | 1011.1 |
| 20260510053225 | 24 | 177 | 3.2 | 4.8 | 0.00 | 0.00 | 0.00 | 92 | 1010.9 |
| 20260510052720 | 24 | 194 | 3.2 | 3.2 | 0.00 | 0.00 | 0.00 | 91 | 1011.1 |
| 20260510052217 | 24 | 143 | 4.8 | 6.4 | 0.00 | 0.00 | 0.00 | 90 | 1011.0 |
| 20260510051712 | 24 | 162 | 6.4 | 9.7 | 0.00 | 0.00 | 0.00 | 90 | 1011.1 |
| 20260510051209 | 24 | 178 | 6.4 | 6.4 | 0.00 | 0.00 | 0.00 | 89 | 1011.3 |
| 20260510050707 | 24 | 207 | 4.8 | 4.8 | 0.00 | 0.00 | 0.00 | 88 | 1011.4 |
| 20260510050204 | 24 | 133 | 8.0 | 11.3 | 0.00 | 0.00 | 0.00 | 88 | 1011.5 |
| 20260510045700 | 24 | 225 | 1.6 | 3.2 | 0.00 | 0.18 | 0.18 | 88 | 1011.4 |
| 20260510045157 | 24 | 211 | 3.2 | 4.8 | 0.00 | 0.18 | 0.18 | 88 | 1011.3 |
| 20260510044653 | 24 | 207 | 0.0 | 1.6 | 0.00 | 0.18 | 0.18 | 87 | 1011.6 |
| 20260510044151 | 24 | 206 | 3.2 | 3.2 | 0.00 | 0.18 | 0.18 | 87 | 1011.4 |
| 20260510043646 | 24 | 183 | 3.2 | 3.2 | 0.00 | 0.18 | 0.18 | 87 | 1011.4 |
| 20260510043143 | 24 | 160 | 6.4 | 6.4 | 0.00 | 0.18 | 0.18 | 86 | 1011.5 |
| 20260510042641 | 24 | 201 | 3.2 | 4.8 | 0.00 | 0.18 | 0.18 | 86 | 1011.4 |
| 20260510042136 | 24 | 198 | 1.6 | 3.2 | 0.00 | 0.18 | 0.18 | 85 | 1011.4 |
| 20260510041634 | 25 | 197 | 4.8 | 4.8 | 0.00 | 0.18 | 0.18 | 85 | 1011.3 |
| 20260510041131 | 25 | 199 | 3.2 | 3.2 | 0.00 | 0.18 | 0.18 | 84 | 1011.3 |
| 20260510040628 | 25 | 133 | 4.8 | 6.4 | 0.00 | 0.18 | 0.18 | 84 | 1011.3 |
| 20260510040124 | 25 | 212 | 3.2 | 4.8 | 0.00 | 0.18 | 0.18 | 83 | 1011.1 |
| 20260510035620 | 25 | 223 | 3.2 | 3.2 | 0.00 | 0.18 | 0.18 | 82 | 1011.3 |
| 20260510035121 | 25 | 140 | 8.0 | 9.7 | 0.00 | 0.18 | 0.18 | 81 | 1011.2 |
| 20260510034618 | 25 | 172 | 3.2 | 9.7 | 0.00 | 0.18 | 0.18 | 81 | 1011.2 |
| 20260510034115 | 25 | 183 | 4.8 | 4.8 | 0.00 | 0.18 | 0.18 | 80 | 1011.4 |
| 20260510033611 | 25 | 149 | 4.8 | 4.8 | 0.00 | 0.18 | 0.18 | 79 | 1011.5 |
| 20260510033109 | 25 | 170 | 3.2 | 4.8 | 0.00 | 0.18 | 0.18 | 79 | 1011.4 |
| 20260510032605 | 24 | 174 | 4.8 | 6.4 | 0.00 | 0.18 | 0.18 | 79 | 1011.4 |
| 20260510032101 | 24 | 157 | 3.2 | 3.2 | 0.00 | 0.18 | 0.18 | 80 | 1011.5 |
| 20260510031556 | 23 | 196 | 3.2 | 3.2 | 0.00 | 0.18 | 0.18 | 82 | 1011.2 |
| 20260510031052 | 23 | 218 | 0.0 | 0.0 | 0.00 | 0.18 | 0.18 | 87 | 1011.1 |
| 20260510030547 | 22 | 220 | 1.6 | 1.6 | 0.00 | 0.18 | 0.18 | 89 | 1010.9 |
| 20260510030045 | 22 | 186 | 1.6 | 1.6 | 0.00 | 0.18 | 0.18 | 91 | 1010.8 |
| 20260510025542 | 22 | 210 | 0.0 | 0.0 | 0.00 | 0.18 | 0.18 | 91 | 1010.6 |
| 20260510025040 | 22 | 227 | 3.2 | 3.2 | 0.00 | 0.18 | 0.18 | 93 | 1010.5 |
| 20260510024536 | 22 | 244 | 0.0 | 0.0 | 0.00 | 0.18 | 0.18 | 93 | 1010.4 |
| 20260510024032 | 22 | 248 | 0.0 | 0.0 | 0.00 | 0.18 | 0.18 | 93 | 1010.3 |
| 20260510023528 | 22 | 236 | 0.0 | 0.0 | 0.00 | 0.18 | 0.18 | 93 | 1010.0 |
| 20260510023026 | 22 | 213 | 1.6 | 1.6 | 0.00 | 0.18 | 0.18 | 93 | 1010.0 |
| 20260510022525 | 22 | 195 | 0.0 | 1.6 | 0.00 | 0.18 | 0.18 | 92 | 1009.9 |
| 20260510022020 | 22 | 233 | 0.0 | 0.0 | 0.00 | 0.18 | 0.18 | 92 | 1009.8 |
| 20260510021517 | 22 | 230 | 0.0 | 0.0 | 0.00 | 0.18 | 0.18 | 91 | 1009.8 |
| 20260510021014 | 22 | 198 | 1.6 | 3.2 | 0.00 | 0.18 | 0.18 | 93 | 1009.7 |
| 20260510020508 | 23 | 209 | 3.2 | 3.2 | 0.00 | 0.18 | 0.18 | 92 | 1009.6 |
| 20260510020005 | 23 | 222 | 1.6 | 3.2 | 0.00 | 0.18 | 0.18 | 91 | 1009.4 |
| 20260510015500 | 22 | 209 | 0.0 | 1.6 | 0.00 | 0.18 | 0.18 | 92 | 1009.4 |
| 20260510014955 | 22 | 107 | 3.2 | 3.2 | 0.00 | 0.18 | 0.18 | 95 | 1009.1 |
| 20260510014454 | 22 | 222 | 0.0 | 0.0 | 0.00 | 0.18 | 0.18 | 95 | 1008.8 |
| 20260510013950 | 22 | 195 | 3.2 | 3.2 | 0.00 | 0.18 | 0.18 | 95 | 1008.8 |
| 20260510013444 | 22 | 237 | 0.0 | 0.0 | 0.00 | 0.18 | 0.18 | 95 | 1008.8 |
| 20260510012940 | 22 | 239 | 0.0 | 0.0 | 0.00 | 0.18 | 0.18 | 94 | 1008.2 |
| 20260510012435 | 22 | 234 | 0.0 | 0.0 | 0.00 | 0.18 | 0.18 | 94 | 1008.2 |
| 20260510011931 | 22 | 226 | 0.0 | 1.6 | 0.00 | 0.18 | 0.18 | 94 | 1008.5 |
| 20260510011425 | 22 | 239 | 1.6 | 1.6 | 0.00 | 0.18 | 0.18 | 94 | 1008.4 |
| 20260510010922 | 22 | 251 | 1.6 | 1.6 | 0.00 | 0.18 | 0.18 | 93 | 1008.2 |
| 20260510010419 | 22 | 265 | 0.0 | 1.6 | 0.00 | 0.18 | 0.18 | 93 | 1008.6 |
| 20260510005916 | 21 | 239 | 1.6 | 1.6 | 0.00 | 0.18 | 0.18 | 93 | 1008.6 |
| 20260510005412 | 21 | 239 | 1.6 | 1.6 | 0.00 | 0.18 | 0.18 | 93 | 1008.3 |
| 20260510004909 | 21 | 233 | 1.6 | 1.6 | 0.00 | 0.18 | 0.18 | 92 | 1008.1 |
| 20260510004407 | 22 | 229 | 1.6 | 1.6 | 0.30 | 0.18 | 0.18 | 90 | 1008.2 |
| 20260510003904 | 22 | 236 | 1.6 | 1.6 | 0.48 | 0.18 | 0.18 | 87 | 1008.0 |
| 20260510003401 | 22 | 249 | 0.0 | 1.6 | 0.30 | 0.13 | 0.13 | 86 | 1008.1 |
| 20260510002900 | 22 | 235 | 1.6 | 1.6 | 0.30 | 0.10 | 0.10 | 87 | 1008.9 |
| 20260510002358 | 21 | 255 | 1.6 | 3.2 | 0.18 | 0.08 | 0.08 | 84 | 1009.0 |
| 20260510001854 | 22 | 264 | 4.8 | 6.4 | 0.00 | 0.05 | 0.05 | 82 | 1008.9 |
| 20260510001352 | 22 | 355 | 6.4 | 9.7 | 0.00 | 0.05 | 0.05 | 79 | 1008.7 |
| 20260510000848 | 23 | 316 | 6.4 | 9.7 | 0.00 | 0.05 | 0.05 | 75 | 1008.6 |
| 20260510000345 | 23 | 3 | 16.1 | 22.5 | 0.00 | 0.05 | 0.05 | 70 | 1008.4 |
| 20260509235842 | 23 | 316 | 9.7 | 12.9 | 0.00 | 0.05 | 0.05 | 71 | 1008.2 |
| 20260509235338 | 24 | 346 | 14.5 | 20.9 | 0.00 | 0.05 | 0.05 | 71 | 1008.2 |
| 20260509234835 | 26 | 315 | 4.8 | 6.4 | 0.00 | 0.05 | 0.05 | 85 | 1008.0 |
| 20260509234332 | 26 | 328 | 3.2 | 3.2 | 0.00 | 0.05 | 0.05 | 86 | 1007.9 |
| 20260509233830 | 26 | 269 | 1.6 | 3.2 | 0.13 | 0.05 | 0.05 | 86 | 1007.8 |
| 20260509233327 | 26 | 238 | 6.4 | 6.4 | 0.13 | 0.05 | 0.05 | 86 | 1007.8 |
| 20260509232822 | 26 | 351 | 6.4 | 6.4 | 0.30 | 0.05 | 0.05 | 82 | 1007.8 |
| 20260509232320 | 28 | 339 | 4.8 | 6.4 | 0.18 | 0.03 | 0.03 | 79 | 1007.8 |
| 20260509231816 | 30 | 290 | 3.2 | 4.8 | 0.00 | 0.00 | 0.00 | 69 | 1008.1 |
| 20260509231313 | 31 | 233 | 0.0 | 0.0 | 0.00 | 0.00 | 0.00 | 63 | 1008.0 |
| 20260509230812 | 31 | 228 | 1.6 | 1.6 | 0.00 | 0.00 | 0.00 | 61 | 1008.0 |
| 20260509230308 | 30 | 205 | 3.2 | 3.2 | 0.00 | 0.00 | 0.00 | 60 | 1007.8 |
| 20260509225803 | 31 | 223 | 0.0 | 1.6 | 0.00 | 0.00 | 0.00 | 61 | 1007.8 |
| 20260509225300 | 31 | 218 | 1.6 | 1.6 | 0.00 | 0.00 | 0.00 | 62 | 1007.6 |
| 20260509224756 | 31 | 228 | 0.0 | 1.6 | 0.00 | 0.00 | 0.00 | 62 | 1007.5 |
| 20260509224253 | 31 | 223 | 1.6 | 1.6 | 0.00 | 0.00 | 0.00 | 61 | 1007.6 |
| 20260509223749 | 31 | 226 | 1.6 | 3.2 | 0.00 | 0.00 | 0.00 | 62 | 1007.3 |
| 20260509223246 | 31 | 223 | 0.0 | 1.6 | 0.00 | 0.00 | 0.00 | 61 | 1007.5 |
| 20260509222743 | 31 | 218 | 1.6 | 1.6 | 0.00 | 0.00 | 0.00 | 62 | 1007.3 |
| 20260509222239 | 31 | 216 | 1.6 | 3.2 | 0.00 | 0.00 | 0.00 | 62 | 1007.3 |
| 20260509221734 | 31 | 161 | 4.8 | 4.8 | 0.00 | 0.00 | 0.00 | 62 | 1007.2 |
| 20260509221231 | 31 | 224 | 1.6 | 1.6 | 0.00 | 0.00 | 0.00 | 62 | 1007.3 |
| 20260509220727 | 32 | 207 | 4.8 | 4.8 | 0.00 | 0.00 | 0.00 | 62 | 1007.4 |
| 20260509220223 | 32 | 229 | 0.0 | 0.0 | 0.00 | 0.00 | 0.00 | 61 | 1007.3 |
| 20260509215719 | 32 | 241 | 0.0 | 1.6 | 0.00 | 0.00 | 0.00 | 61 | 1007.3 |
| 20260509215215 | 33 | 336 | 3.2 | 4.8 | 0.00 | 0.00 | 0.00 | 58 | 1007.4 |
| 20260509214713 | 35 | 236 | 3.2 | 3.2 | 0.00 | 0.00 | 0.00 | 52 | 1007.4 |
| 20260509214210 | 34 | 240 | 1.6 | 3.2 | 0.00 | 0.00 | 0.00 | 54 | 1007.3 |
| 20260509213707 | 34 | 255 | 1.6 | 3.2 | 0.00 | 0.00 | 0.00 | 59 | 1007.4 |
| 20260509213202 | 33 | 225 | 0.0 | 1.6 | 0.00 | 0.00 | 0.00 | 58 | 1007.3 |
| 20260509212700 | 33 | 245 | 3.2 | 3.2 | 0.00 | 0.00 | 0.00 | 57 | 1007.5 |
| 20260509212157 | 33 | 253 | 3.2 | 4.8 | 0.00 | 0.00 | 0.00 | 59 | 1007.4 |
| 20260509211652 | 33 | 263 | 3.2 | 3.2 | 0.00 | 0.00 | 0.00 | 57 | 1007.2 |
| 20260509211149 | 33 | 228 | 0.0 | 1.6 | 0.00 | 0.00 | 0.00 | 59 | 1007.3 |
| 20260509210647 | 32 | 208 | 1.6 | 1.6 | 0.00 | 0.00 | 0.00 | 59 | 1007.5 |
| 20260509210144 | 33 | 227 | 0.0 | 1.6 | 0.00 | 0.00 | 0.00 | 57 | 1007.7 |
| 20260509205639 | 33 | 232 | 0.0 | 1.6 | 0.00 | 0.00 | 0.00 | 61 | 1007.6 |
| 20260509205138 | 33 | 224 | 0.0 | 1.6 | 0.00 | 0.00 | 0.00 | 56 | 1007.7 |
| 20260509204635 | 33 | 207 | 3.2 | 3.2 | 0.00 | 0.00 | 0.00 | 56 | 1007.7 |
| 20260509204131 | 33 | 245 | 3.2 | 4.8 | 0.00 | 0.00 | 0.00 | 54 | 1007.9 |
| 20260509203627 | 33 | 227 | 0.0 | 1.6 | 0.00 | 0.00 | 0.00 | 55 | 1007.9 |
| 20260509203126 | 33 | 243 | 1.6 | 1.6 | 0.00 | 0.00 | 0.00 | 53 | 1008.1 |
| 20260509202626 | 32 | 237 | 0.0 | 1.6 | 0.00 | 0.00 | 0.00 | 55 | 1008.0 |
| 20260509202121 | 31 | 213 | 1.6 | 1.6 | 0.00 | 0.00 | 0.00 | 59 | 1008.0 |
| 20260509201616 | 32 | 237 | 3.2 | 3.2 | 0.00 | 0.00 | 0.00 | 55 | 1008.1 |
| 20260509201114 | 31 | 250 | 1.6 | 1.6 | 0.00 | 0.00 | 0.00 | 58 | 1008.4 |
| 20260509200615 | 31 | 262 | 3.2 | 3.2 | 0.00 | 0.00 | 0.00 | 59 | 1008.3 |
| 20260509200110 | 31 | 221 | 1.6 | 1.6 | 0.00 | 0.00 | 0.00 | 61 | 1008.3 |
| 20260509195606 | 31 | 310 | 3.2 | 3.2 | 0.00 | 0.00 | 0.00 | 63 | 1008.3 |
| 20260509195101 | 31 | 279 | 3.2 | 3.2 | 0.00 | 0.00 | 0.00 | 64 | 1008.3 |
| 20260509194601 | 32 | 243 | 1.6 | 3.2 | 0.00 | 0.00 | 0.00 | 60 | 1008.4 |
| 20260509194059 | 32 | 244 | 1.6 | 3.2 | 0.00 | 0.00 | 0.00 | 58 | 1008.5 |
| 20260509193554 | 32 | 236 | 1.6 | 1.6 | 0.00 | 0.00 | 0.00 | 61 | 1008.6 |
| 20260509193050 | 32 | 221 | 1.6 | 3.2 | 0.00 | 0.00 | 0.00 | 58 | 1008.5 |
| 20260509192547 | 31 | 254 | 1.6 | 1.6 | 0.00 | 0.00 | 0.00 | 61 | 1008.6 |
| 20260509192042 | 31 | 285 | 3.2 | 4.8 | 0.00 | 0.00 | 0.00 | 62 | 1008.7 |
| 20260509191537 | 31 | 291 | 1.6 | 1.6 | 0.00 | 0.00 | 0.00 | 62 | 1008.5 |
| 20260509191033 | 31 | 274 | 1.6 | 3.2 | 0.00 | 0.00 | 0.00 | 61 | 1008.5 |
| 20260509190530 | 31 | 274 | 1.6 | 3.2 | 0.00 | 0.00 | 0.00 | 62 | 1008.6 |
| 20260509190028 | 31 | 241 | 0.0 | 1.6 | 0.00 | 0.00 | 0.00 | 63 | 1008.6 |
| 20260509185525 | 31 | 244 | 1.6 | 3.2 | 0.00 | 0.00 | 0.00 | 64 | 1008.7 |
| 20260509185021 | 31 | 238 | 1.6 | 1.6 | 0.00 | 0.00 | 0.00 | 65 | 1008.9 |
| 20260509184520 | 31 | 316 | 1.6 | 3.2 | 0.00 | 0.00 | 0.00 | 65 | 1008.8 |
| 20260509184016 | 30 | 239 | 1.6 | 1.6 | 0.00 | 0.00 | 0.00 | 64 | 1008.8 |
| 20260509183511 | 31 | 264 | 4.8 | 4.8 | 0.00 | 0.00 | 0.00 | 64 | 1008.7 |
| 20260509183007 | 31 | 223 | 1.6 | 1.6 | 0.00 | 0.00 | 0.00 | 62 | 1008.9 |
| 20260509182504 | 31 | 237 | 1.6 | 1.6 | 0.00 | 0.00 | 0.00 | 64 | 1009.3 |
| 20260509182001 | 31 | 246 | 3.2 | 3.2 | 0.00 | 0.00 | 0.00 | 64 | 1009.2 |
| 20260509181459 | 31 | 241 | 3.2 | 3.2 | 0.00 | 0.00 | 0.00 | 66 | 1009.5 |
| 20260509180956 | 30 | 223 | 1.6 | 3.2 | 0.00 | 0.00 | 0.00 | 65 | 1009.1 |
| 20260509180451 | 30 | 256 | 1.6 | 1.6 | 0.00 | 0.00 | 0.00 | 70 | 1009.5 |
| 20260509175949 | 30 | 253 | 3.2 | 3.2 | 0.00 | 0.00 | 0.00 | 67 | 1009.6 |
| 20260509175445 | 30 | 244 | 3.2 | 4.8 | 0.00 | 0.00 | 0.00 | 67 | 1009.6 |
| 20260509174941 | 29 | 121 | 4.8 | 4.8 | 0.00 | 0.00 | 0.00 | 70 | 1009.8 |
| 20260509174438 | 29 | 197 | 4.8 | 6.4 | 0.00 | 0.00 | 0.00 | 74 | 1009.7 |
| 20260509173933 | 29 | 148 | 9.7 | 11.3 | 0.00 | 0.00 | 0.00 | 73 | 1009.8 |
| 20260509173433 | 29 | 207 | 3.2 | 3.2 | 0.00 | 0.00 | 0.00 | 73 | 1010.0 |
| 20260509172930 | 30 | 210 | 3.2 | 4.8 | 0.00 | 0.00 | 0.00 | 71 | 1010.0 |
| 20260509172427 | 30 | 229 | 0.0 | 1.6 | 0.00 | 0.00 | 0.00 | 70 | 1010.3 |
| 20260509171922 | 30 | 227 | 3.2 | 4.8 | 0.00 | 0.00 | 0.00 | 71 | 1010.2 |
| 20260509171418 | 28 | 225 | 0.0 | 1.6 | 0.00 | 0.00 | 0.00 | 77 | 1010.3 |
| 20260509170915 | 28 | 247 | 3.2 | 3.2 | 0.00 | 0.00 | 0.00 | 78 | 1010.4 |
| 20260509170410 | 28 | 166 | 3.2 | 4.8 | 0.00 | 0.00 | 0.00 | 80 | 1010.4 |
| 20260509165907 | 28 | 221 | 1.6 | 1.6 | 0.00 | 0.00 | 0.00 | 80 | 1010.5 |
| 20260509165400 | 29 | 100 | 6.4 | 6.4 | 0.00 | 0.00 | 0.00 | 78 | 1010.4 |
| 20260509164856 | 28 | 227 | 0.0 | 0.0 | 0.00 | 0.00 | 0.00 | 79 | 1010.5 |
| 20260509164353 | 28 | 190 | 1.6 | 3.2 | 0.00 | 0.00 | 0.00 | 80 | 1010.6 |
| 20260509163849 | 27 | 249 | 0.0 | 0.0 | 0.00 | 0.00 | 0.00 | 81 | 1010.5 |
| 20260509163346 | 27 | 226 | 0.0 | 0.0 | 0.00 | 0.00 | 0.00 | 85 | 1010.4 |
| 20260509162845 | 27 | 224 | 0.0 | 0.0 | 0.00 | 0.00 | 0.00 | 85 | 1010.5 |
| 20260509162344 | 27 | 215 | 0.0 | 0.0 | 0.00 | 0.00 | 0.00 | 84 | 1010.5 |
| 20260509161840 | 27 | 234 | 0.0 | 0.0 | 0.00 | 0.00 | 0.00 | 84 | 1010.4 |
| 20260509161336 | 27 | 225 | 0.0 | 0.0 | 0.00 | 0.00 | 0.00 | 84 | 1010.4 |
| 20260509160832 | 26 | 239 | 1.6 | 1.6 | 0.00 | 0.00 | 0.00 | 86 | 1010.4 |
| 20260509160329 | 26 | 238 | 0.0 | 0.0 | 0.00 | 0.00 | 0.00 | 87 | 1010.4 |
| 20260509155824 | 27 | 239 | 0.0 | 0.0 | 0.00 | 0.00 | 0.00 | 86 | 1010.3 |
| 20260509155320 | 26 | 239 | 0.0 | 0.0 | 0.00 | 0.00 | 0.00 | 88 | 1010.3 |
| 20260509154817 | 26 | 249 | 1.6 | 1.6 | 0.00 | 0.00 | 0.00 | 88 | 1010.2 |
| 20260509154313 | 26 | 248 | 0.0 | 0.0 | 0.00 | 0.00 | 0.00 | 89 | 1010.1 |
| 20260509153810 | 26 | 244 | 0.0 | 1.6 | 0.00 | 0.00 | 0.00 | 91 | 1010.1 |
| 20260509153307 | 25 | 265 | 1.6 | 3.2 | 0.00 | 0.00 | 0.00 | 91 | 1010.0 |
| 20260509152804 | 25 | 238 | 0.0 | 0.0 | 0.00 | 0.00 | 0.00 | 92 | 1010.2 |
| 20260509152259 | 25 | 254 | 1.6 | 1.6 | 0.00 | 0.00 | 0.00 | 92 | 1010.4 |
| 20260509151757 | 25 | 199 | 0.0 | 0.0 | 0.00 | 0.00 | 0.00 | 92 | 1010.1 |
| 20260509151253 | 25 | 256 | 1.6 | 1.6 | 0.00 | 0.00 | 0.00 | 93 | 1010.1 |
| 20260509150752 | 25 | 230 | 0.0 | 0.0 | 0.00 | 0.00 | 0.00 | 94 | 1010.1 |
| 20260509150250 | 25 | 226 | 1.6 | 1.6 | 0.00 | 0.00 | 0.00 | 94 | 1010.1 |
| 20260509145746 | 25 | 265 | 1.6 | 3.2 | 0.00 | 0.00 | 0.00 | 95 | 1010.0 |
| 20260509145246 | 25 | 239 | 0.0 | 0.0 | 0.00 | 0.00 | 0.00 | 96 | 1010.1 |
| 20260509144743 | 25 | 215 | 0.0 | 0.0 | 0.00 | 0.00 | 0.00 | 96 | 1010.0 |
| 20260509144239 | 25 | 250 | 0.0 | 0.0 | 0.00 | 0.00 | 0.00 | 97 | 1010.1 |
| 20260509143736 | 25 | 236 | 0.0 | 0.0 | 0.00 | 0.00 | 0.00 | 97 | 1009.9 |
| 20260509143234 | 25 | 233 | 0.0 | 0.0 | 0.00 | 0.00 | 0.00 | 98 | 1009.8 |
| 20260509142730 | 24 | 231 | 0.0 | 0.0 | 0.00 | 0.00 | 0.00 | 98 | 1009.7 |
| 20260509142226 | 24 | 257 | 0.0 | 0.0 | 0.00 | 0.00 | 0.00 | 99 | 1009.6 |
| 20260509141722 | 24 | 217 | 0.0 | 0.0 | 0.00 | 0.00 | 0.00 | 99 | 1009.3 |
| 20260509141220 | 24 | 233 | 0.0 | 0.0 | 0.00 | 0.00 | 0.00 | 99 | 1009.0 |
| 20260509140716 | 23 | 229 | 0.0 | 0.0 | 0.00 | 0.00 | 0.00 | 99 | 1009.0 |
| 20260509140213 | 23 | 215 | 0.0 | 0.0 | 0.00 | 0.00 | 0.00 | 99 | 1009.1 |
| 20260509135710 | 24 | 236 | 0.0 | 0.0 | 0.00 | 0.00 | 0.00 | 99 | 1009.0 |
| 20260509135208 | 24 | 229 | 0.0 | 0.0 | 0.00 | 0.00 | 0.00 | 99 | 1009.4 |
| 20260509134705 | 24 | 232 | 0.0 | 0.0 | 0.00 | 0.00 | 0.00 | 99 | 1009.7 |
| 20260509134203 | 23 | 233 | 0.0 | 0.0 | 0.00 | 0.00 | 0.00 | 99 | 1009.9 |
| 20260509133659 | 23 | 222 | 0.0 | 0.0 | 0.00 | 0.00 | 0.00 | 99 | 1009.8 |
| 20260509133156 | 24 | 231 | 0.0 | 0.0 | 0.00 | 0.00 | 0.00 | 99 | 1010.2 |
| 20260509132654 | 24 | 210 | 1.6 | 1.6 | 0.00 | 0.00 | 0.00 | 99 | 1010.0 |
| 20260509132153 | 23 | 234 | 0.0 | 0.0 | 0.00 | 0.00 | 0.00 | 99 | 1010.4 |
| 20260509131649 | 23 | 230 | 0.0 | 0.0 | 0.00 | 0.00 | 0.00 | 99 | 1010.4 |
| 20260509131146 | 23 | 211 | 0.0 | 0.0 | 0.00 | 0.00 | 0.00 | 99 | 1010.5 |
| 20260509130641 | 23 | 233 | 0.0 | 0.0 | 0.00 | 0.00 | 0.00 | 99 | 1010.6 |
| 20260509130138 | 23 | 236 | 0.0 | 0.0 | 0.00 | 0.00 | 0.00 | 99 | 1010.7 |
| 20260509125635 | 23 | 232 | 0.0 | 0.0 | 0.00 | 0.00 | 0.00 | 99 | 1010.5 |
| 20260509125131 | 23 | 229 | 0.0 | 0.0 | 0.00 | 0.00 | 0.00 | 99 | 1010.1 |
| 20260509124628 | 23 | 202 | 1.6 | 1.6 | 0.00 | 0.00 | 0.00 | 99 | 1009.9 |
| 20260509124125 | 23 | 221 | 0.0 | 0.0 | 0.00 | 0.00 | 0.00 | 99 | 1010.3 |
| 20260509123623 | 23 | 237 | 0.0 | 0.0 | 0.00 | 0.00 | 0.00 | 99 | 1010.6 |
| 20260509123119 | 23 | 237 | 0.0 | 0.0 | 0.00 | 0.00 | 0.00 | 99 | 1010.5 |
| 20260509122615 | 23 | 236 | 0.0 | 0.0 | 0.00 | 0.00 | 0.00 | 99 | 1010.3 |
| 20260509122113 | 23 | 230 | 0.0 | 0.0 | 0.00 | 0.00 | 0.00 | 99 | 1010.1 |
| 20260509121609 | 23 | 229 | 0.0 | 0.0 | 0.00 | 0.00 | 0.00 | 99 | 1010.2 |
| 20260509121106 | 23 | 225 | 0.0 | 0.0 | 0.00 | 0.00 | 0.00 | 99 | 1010.5 |
| 20260509120604 | 23 | 228 | 0.0 | 0.0 | 0.00 | 0.00 | 0.00 | 99 | 1010.4 |
| 20260509115600 | 23 | 233 | 0.0 | 0.0 | 0.00 | 0.00 | 0.00 | 99 | 1010.2 |
| 20260509115057 | 23 | 231 | 0.0 | 0.0 | 0.00 | 0.00 | 0.00 | 99 | 1010.2 |
| 20260509114555 | 23 | 239 | 0.0 | 0.0 | 0.00 | 0.00 | 0.00 | 99 | 1010.0 |
| 20260509114054 | 23 | 239 | 0.0 | 0.0 | 0.00 | 0.00 | 0.00 | 99 | 1009.8 |
| 20260509113552 | 23 | 237 | 0.0 | 0.0 | 0.00 | 0.00 | 0.00 | 99 | 1009.9 |
| 20260509113049 | 23 | 242 | 0.0 | 0.0 | 0.00 | 0.00 | 0.00 | 99 | 1009.9 |
| 20260509112545 | 23 | 248 | 0.0 | 0.0 | 0.00 | 0.00 | 0.00 | 99 | 1009.7 |
| 20260509112042 | 23 | 230 | 0.0 | 0.0 | 0.00 | 0.00 | 0.00 | 99 | 1009.7 |
| 20260509111540 | 23 | 230 | 0.0 | 0.0 | 0.00 | 0.00 | 0.00 | 99 | 1009.6 |
| 20260509111037 | 23 | 230 | 0.0 | 0.0 | 0.00 | 0.00 | 0.00 | 99 | 1009.6 |
| 20260509110533 | 23 | 229 | 0.0 | 0.0 | 0.00 | 0.00 | 0.00 | 99 | 1009.7 |
| 20260509110031 | 23 | 230 | 0.0 | 0.0 | 0.00 | 0.00 | 0.00 | 99 | 1009.8 |
| 20260509105529 | 23 | 229 | 0.0 | 0.0 | 0.00 | 0.00 | 0.00 | 99 | 1009.7 |
| 20260509105026 | 23 | 230 | 0.0 | 0.0 | 0.00 | 0.00 | 0.00 | 99 | 1009.5 |
| 20260509104523 | 23 | 228 | 0.0 | 0.0 | 0.00 | 0.00 | 0.00 | 99 | 1009.6 |
| 20260509104020 | 23 | 230 | 0.0 | 0.0 | 0.00 | 0.00 | 0.00 | 99 | 1009.4 |
| 20260509103518 | 23 | 229 | 0.0 | 0.0 | 0.00 | 0.00 | 0.00 | 99 | 1009.6 |
| 20260509103016 | 23 | 228 | 0.0 | 0.0 | 0.00 | 0.00 | 0.00 | 99 | 1009.4 |
| 20260509102513 | 23 | 233 | 0.0 | 0.0 | 0.00 | 0.00 | 0.00 | 99 | 1009.6 |
| 20260509102009 | 23 | 237 | 0.0 | 0.0 | 0.00 | 0.00 | 0.00 | 99 | 1009.4 |
| 20260509101506 | 23 | 231 | 0.0 | 0.0 | 0.00 | 0.00 | 0.00 | 99 | 1009.6 |
| 20260509101003 | 23 | 236 | 0.0 | 0.0 | 0.00 | 0.00 | 0.00 | 99 | 1009.5 |
| 20260509100500 | 23 | 239 | 0.0 | 0.0 | 0.00 | 0.00 | 0.00 | 99 | 1009.5 |
| 20260509095956 | 23 | 235 | 0.0 | 0.0 | 0.00 | 0.00 | 0.00 | 99 | 1009.5 |
| 20260509095453 | 23 | 229 | 0.0 | 0.0 | 0.00 | 0.00 | 0.00 | 99 | 1009.2 |
| 20260509094951 | 23 | 228 | 1.6 | 3.2 | 0.00 | 0.00 | 0.00 | 99 | 1009.2 |
| 20260509094447 | 23 | 230 | 0.0 | 0.0 | 0.00 | 0.00 | 0.00 | 99 | 1008.9 |
| 20260509093944 | 23 | 227 | 0.0 | 0.0 | 0.00 | 0.00 | 0.00 | 99 | 1009.0 |
| 20260509093442 | 23 | 230 | 0.0 | 0.0 | 0.00 | 0.00 | 0.00 | 99 | 1009.0 |
| 20260509092940 | 23 | 234 | 0.0 | 0.0 | 0.00 | 0.00 | 0.00 | 99 | 1009.0 |
| 20260509092437 | 23 | 236 | 0.0 | 0.0 | 0.00 | 0.00 | 0.00 | 99 | 1008.9 |
| 20260509091936 | 23 | 236 | 0.0 | 0.0 | 0.00 | 0.00 | 0.00 | 99 | 1008.8 |
| 20260509091432 | 23 | 239 | 0.0 | 0.0 | 0.00 | 0.00 | 0.00 | 99 | 1008.9 |
| 20260509090930 | 23 | 243 | 0.0 | 0.0 | 0.00 | 0.00 | 0.00 | 99 | 1009.3 |
| 20260509090427 | 23 | 234 | 0.0 | 0.0 | 0.00 | 0.00 | 0.00 | 99 | 1009.4 |
| 20260509085925 | 23 | 238 | 0.0 | 0.0 | 0.00 | 0.00 | 0.00 | 99 | 1009.4 |
| 20260509085421 | 23 | 234 | 0.0 | 0.0 | 0.00 | 0.00 | 0.00 | 99 | 1009.4 |
| 20260509084917 | 23 | 234 | 0.0 | 0.0 | 0.00 | 0.00 | 0.00 | 99 | 1009.4 |
| 20260509084414 | 23 | 235 | 0.0 | 0.0 | 0.00 | 0.00 | 0.00 | 99 | 1009.5 |
| 20260509083912 | 23 | 236 | 0.0 | 0.0 | 0.00 | 0.00 | 0.00 | 99 | 1009.1 |
| 20260509083409 | 23 | 234 | 0.0 | 0.0 | 0.00 | 0.00 | 0.00 | 99 | 1009.2 |
| 20260509082905 | 23 | 234 | 0.0 | 0.0 | 0.00 | 0.00 | 0.00 | 99 | 1009.3 |
| 20260509082403 | 23 | 224 | 0.0 | 0.0 | 0.00 | 0.00 | 0.00 | 99 | 1009.1 |
| 20260509081859 | 23 | 221 | 0.0 | 0.0 | 0.00 | 0.00 | 0.00 | 99 | 1009.2 |
| 20260509081357 | 23 | 227 | 0.0 | 0.0 | 0.00 | 0.00 | 0.00 | 99 | 1009.3 |
| 20260509080854 | 23 | 222 | 0.0 | 0.0 | 0.00 | 0.00 | 0.00 | 99 | 1009.3 |
| 20260509080352 | 23 | 238 | 0.0 | 0.0 | 0.00 | 0.00 | 0.00 | 99 | 1009.1 |
| 20260509075850 | 23 | 241 | 0.0 | 0.0 | 0.00 | 0.00 | 0.00 | 99 | 1008.9 |
| 20260509075347 | 23 | 229 | 0.0 | 0.0 | 0.00 | 0.00 | 0.00 | 99 | 1008.9 |
| 20260509074844 | 23 | 154 | 3.2 | 4.8 | 0.00 | 0.00 | 0.00 | 99 | 1008.8 |
| 20260509074342 | 23 | 229 | 1.6 | 3.2 | 0.00 | 0.00 | 0.00 | 99 | 1008.8 |
| 20260509073838 | 23 | 179 | 0.0 | 1.6 | 0.00 | 0.00 | 0.00 | 99 | 1008.9 |
| 20260509073334 | 23 | 197 | 3.2 | 3.2 | 0.00 | 0.00 | 0.00 | 99 | 1009.0 |
| 20260509072831 | 23 | 220 | 1.6 | 1.6 | 0.00 | 0.00 | 0.00 | 99 | 1009.3 |
| 20260509072327 | 23 | 201 | 1.6 | 1.6 | 0.00 | 0.00 | 0.00 | 99 | 1009.5 |